Time;durP1;ratioP1;P1;durP2;ratioP2;P2;SDS_P1;SDS_P2;PMS_P1;PMS_P2;Temp;Humidity;BMP_temperature;BMP_pressure;BME280_temperature;BME280_humidity;BME280_pressure;Samples;Min_cycle;Max_cycle;Signal;HPM_P1;HPM_P2
2022/03/25 00:01:57;;;;;;;;;;;;;;;14.97;40.78;101863.84;4918672;28;97931;-62
2022/03/25 00:04:23;;;;;;;;;;;;;;;14.94;40.71;101872.53;4918645;28;98927;-62
2022/03/25 00:06:49;;;;;;;;;;;;;;;14.92;40.79;101869.25;4918138;28;128071;-62
2022/03/25 00:09:15;;;;;;;;;;;;;;;14.89;41.01;101872.47;4919358;28;98298;-62
2022/03/25 00:11:41;;;;;;;;;;;;;;;14.87;41.19;101867.31;4901557;28;121990;-64
2022/03/25 00:14:07;;;;;;;;;;;;;;;14.85;41.07;101869.47;4918858;28;120861;-64
2022/03/25 00:16:33;;;;;;;;;;;;;;;14.83;40.83;101868.94;4919086;28;99017;-61
2022/03/25 00:18:59;;;;;;;;;;;;;;;14.80;41.29;101863.19;4919209;28;126872;-65
2022/03/25 00:21:25;;;;;;;;;;;;;;;14.79;41.38;101865.09;4917638;28;122528;-61
2022/03/25 00:23:51;;;;;;;;;;;;;;;14.77;41.12;101864.53;4901326;28;127767;-65
2022/03/25 00:26:17;;;;;;;;;;;;;;;14.73;41.02;101856.09;4935903;28;127051;-64
2022/03/25 00:28:43;;;;;;;;;;;;;;;14.72;41.35;101867.22;4901421;28;98037;-61
2022/03/25 00:31:09;;;;;;;;;;;;;;;14.70;40.98;101872.09;4900279;28;122057;-64
2022/03/25 00:33:39;;;;;;;;;;;;;;;14.67;40.95;101868.00;4917923;28;128094;-61
2022/03/25 00:36:05;;;;;;;;;;;;;;;14.65;41.04;101870.16;4916772;28;98697;-61
2022/03/25 00:38:31;;;;;;;;;;;;;;;14.64;41.34;101868.53;4918987;28;125911;-61
2022/03/25 00:40:57;;;;;;;;;;;;;;;14.62;41.24;101864.44;4918820;28;97976;-61
2022/03/25 00:43:24;;;;;;;;;;;;;;;14.60;41.35;101864.69;4919262;28;99022;-61
2022/03/25 00:45:51;;;;;;;;;;;;;;;14.58;41.29;101864.16;4919149;28;98921;-64
2022/03/25 00:48:17;;;;;;;;;;;;;;;14.55;41.06;101864.66;4918947;28;97936;-61
2022/03/25 00:50:43;;;;;;;;;;;;;;;14.55;41.26;101863.84;4918124;28;97920;-65
2022/03/25 00:53:09;;;;;;;;;;;;;;;14.53;41.37;101863.28;4900738;28;121215;-66
2022/03/25 00:55:35;;;;;;;;;;;;;;;14.50;41.48;101867.31;4916752;28;126990;-66
2022/03/25 00:58:01;;;;;;;;;;;;;;;14.48;41.21;101866.75;4917645;28;128069;-62
2022/03/25 01:00:27;;;;;;;;;;;;;;;14.46;41.23;101866.19;4916678;28;98078;-61
2022/03/25 01:02:53;;;;;;;;;;;;;;;14.44;41.64;101868.34;4883932;28;119215;-65
2022/03/25 01:05:19;;;;;;;;;;;;;;;14.42;41.58;101868.63;4918547;28;98323;-66
2022/03/25 01:07:45;;;;;;;;;;;;;;;14.39;41.69;101861.00;4918013;28;110377;-65
2022/03/25 01:10:11;;;;;;;;;;;;;;;14.37;41.79;101865.84;4916358;28;123030;-62
2022/03/25 01:12:37;;;;;;;;;;;;;;;14.35;41.55;101859.06;4917662;28;98833;-65
2022/03/25 01:15:03;;;;;;;;;;;;;;;14.33;41.45;101859.31;4917940;28;127721;-61
2022/03/25 01:17:29;;;;;;;;;;;;;;;14.31;41.45;101856.03;4918657;28;98349;-65
2022/03/25 01:19:55;;;;;;;;;;;;;;;14.30;41.65;101850.84;4919030;28;98111;-62
2022/03/25 01:22:21;;;;;;;;;;;;;;;14.27;41.69;101854.13;4900226;28;100479;-67
2022/03/25 01:24:48;;;;;;;;;;;;;;;14.25;41.65;101851.63;4899277;28;126062;-61
2022/03/25 01:27:14;;;;;;;;;;;;;;;14.21;41.85;101854.03;4919037;28;98045;-65
2022/03/25 01:29:40;;;;;;;;;;;;;;;14.20;41.71;101849.72;4915368;28;110555;-66
2022/03/25 01:32:07;;;;;;;;;;;;;;;14.18;41.62;101853.75;4916974;28;128012;-65
2022/03/25 01:34:34;;;;;;;;;;;;;;;14.16;41.70;101850.50;4918649;28;98807;-65
2022/03/25 01:37:00;;;;;;;;;;;;;;;14.14;41.87;101847.19;4919164;28;97931;-65
2022/03/25 01:39:26;;;;;;;;;;;;;;;14.12;41.69;101858.31;4918033;28;120484;-65
2022/03/25 01:41:52;;;;;;;;;;;;;;;14.09;41.88;101850.69;4917044;28;127488;-64
2022/03/25 01:44:28;;;;;;;;;;;;;;;14.08;41.75;101850.97;4919720;28;99250;-61
2022/03/25 01:46:54;;;;;;;;;;;;;;;14.06;41.83;101844.97;4916754;28;124338;-62
2022/03/25 01:49:20;;;;;;;;;;;;;;;14.05;41.81;101857.69;4919245;28;101728;-61
2022/03/25 01:51:52;;;;;;;;;;;;;;;14.01;41.86;101845.75;4895575;28;101668;-65
2022/03/25 01:54:31;;;;;;;;;;;;;;;14.00;41.69;101849.53;4897911;28;118085;-61
2022/03/25 01:57:00;;;;;;;;;;;;;;;13.98;41.73;101846.25;4903511;28;101455;-61
2022/03/25 01:59:26;;;;;;;;;;;;;;;13.95;42.02;101850.31;4917076;28;98182;-64
2022/03/25 02:01:54;;;;;;;;;;;;;;;13.92;41.91;101845.38;4917148;28;128948;-64
2022/03/25 02:04:20;;;;;;;;;;;;;;;13.92;41.84;101844.56;4918505;28;98871;-61
2022/03/25 02:06:46;;;;;;;;;;;;;;;13.90;41.95;101847.53;4917615;28;115869;-65
2022/03/25 02:09:12;;;;;;;;;;;;;;;13.88;42.00;101849.69;4918034;28;110718;-65
2022/03/25 02:11:38;;;;;;;;;;;;;;;13.87;41.86;101844.50;4917147;28;107505;-65
2022/03/25 02:14:04;;;;;;;;;;;;;;;13.84;42.08;101851.28;4917622;28;125154;-62
2022/03/25 02:16:56;;;;;;;;;;;;;;;13.82;42.11;101847.19;4916514;28;126790;-61
2022/03/25 02:19:25;;;;;;;;;;;;;;;13.80;41.91;101841.22;4913858;28;122650;-65
2022/03/25 02:21:51;;;;;;;;;;;;;;;13.78;42.01;101852.28;4916897;28;128193;-65
2022/03/25 02:24:17;;;;;;;;;;;;;;;13.75;41.91;101850.91;4919253;28;128893;-65
2022/03/25 02:26:43;;;;;;;;;;;;;;;13.75;41.89;101852.78;4919915;28;126654;-61
2022/03/25 02:29:11;;;;;;;;;;;;;;;13.73;41.96;101852.25;4921164;28;97678;-61
2022/03/25 02:31:37;;;;;;;;;;;;;;;13.72;42.20;101853.31;4919505;28;98565;-65
2022/03/25 02:34:04;;;;;;;;;;;;;;;13.70;42.27;101852.75;4920685;28;126814;-61
2022/03/25 02:36:38;;;;;;;;;;;;;;;13.69;42.15;101853.81;4919412;28;120661;-64
2022/03/25 02:39:05;;;;;;;;;;;;;;;13.67;42.14;101853.25;4920014;28;123105;-61
2022/03/25 02:41:31;;;;;;;;;;;;;;;13.65;42.24;101855.41;4921043;28;98140;-62
2022/03/25 02:43:57;;;;;;;;;;;;;;;13.64;41.94;101857.31;4919429;28;128273;-61
2022/03/25 02:46:23;;;;;;;;;;;;;;;13.62;42.26;101861.31;4920891;28;98358;-61
2022/03/25 02:48:49;;;;;;;;;;;;;;;13.61;41.94;101859.69;4920068;28;122538;-61
2022/03/25 02:51:15;;;;;;;;;;;;;;;13.58;42.43;101852.88;4919928;28;118132;-60
2022/03/25 02:53:41;;;;;;;;;;;;;;;13.57;42.22;101853.97;4901858;28;129310;-61
2022/03/25 02:56:06;;;;;;;;;;;;;;;13.56;42.22;101854.19;4902520;28;98292;-61
2022/03/25 02:58:32;;;;;;;;;;;;;;;13.53;42.24;101847.41;4901222;28;122293;-61
2022/03/25 03:00:58;;;;;;;;;;;;;;;13.52;42.22;101856.63;4918853;28;128623;-64
2022/03/25 03:03:24;;;;;;;;;;;;;;;13.50;42.19;101859.56;4920138;28;110762;-66
2022/03/25 03:05:50;;;;;;;;;;;;;;;13.49;42.30;101854.41;4919880;28;98603;-61
2022/03/25 03:08:16;;;;;;;;;;;;;;;13.46;42.24;101850.31;4920044;28;97708;-64
2022/03/25 03:10:43;;;;;;;;;;;;;;;13.45;42.42;101847.88;4919067;28;127643;-64
2022/03/25 03:13:09;;;;;;;;;;;;;;;13.43;42.24;101852.69;4919796;28;99143;-61
2022/03/25 03:15:36;;;;;;;;;;;;;;;13.41;42.20;101855.69;4901781;28;98062;-60
2022/03/25 03:18:02;;;;;;;;;;;;;;;13.39;42.34;101852.38;4921451;28;98173;-64
2022/03/25 03:20:27;;;;;;;;;;;;;;;13.37;42.42;101854.53;4920328;28;98643;-61
2022/03/25 03:22:55;;;;;;;;;;;;;;;13.35;42.33;101859.38;4918699;28;126196;-65
2022/03/25 03:25:21;;;;;;;;;;;;;;;13.34;42.40;101860.47;4901329;28;98213;-65
2022/03/25 03:27:47;;;;;;;;;;;;;;;13.32;42.52;101865.28;4917529;28;123513;-61
2022/03/25 03:30:14;;;;;;;;;;;;;;;13.30;42.52;101862.03;4919176;28;105970;-61
2022/03/25 03:32:39;;;;;;;;;;;;;;;13.28;42.58;101858.75;4920108;28;98657;-65
2022/03/25 03:35:06;;;;;;;;;;;;;;;13.26;42.47;101863.59;4918164;28;127839;-65
2022/03/25 03:37:38;;;;;;;;;;;;;;;13.24;42.42;101869.28;4920088;28;98450;-61
2022/03/25 03:40:05;;;;;;;;;;;;;;;13.23;42.54;101866.81;4917625;28;122523;-61
2022/03/25 03:42:31;;;;;;;;;;;;;;;13.21;42.57;101867.03;4920328;28;98311;-61
2022/03/25 03:44:57;;;;;;;;;;;;;;;13.20;42.54;101878.09;4918659;28;126504;-61
2022/03/25 03:47:23;;;;;;;;;;;;;;;13.18;42.61;101869.44;4919537;28;121920;-60
2022/03/25 03:49:49;;;;;;;;;;;;;;;13.16;42.39;101868.84;4918607;28;128051;-64
2022/03/25 03:52:14;;;;;;;;;;;;;;;13.14;42.44;101869.09;4918543;28;126911;-64
2022/03/25 03:54:40;;;;;;;;;;;;;;;13.13;42.55;101872.09;4900339;28;127334;-64
2022/03/25 03:57:09;;;;;;;;;;;;;;;13.12;42.62;101870.41;4917110;28;121984;-61
2022/03/25 03:59:35;;;;;;;;;;;;;;;13.10;42.60;101878.00;4920482;28;98611;-65
2022/03/25 04:02:01;;;;;;;;;;;;;;;13.08;42.56;101878.22;4919492;28;126767;-61
2022/03/25 04:04:27;;;;;;;;;;;;;;;13.06;42.69;101877.66;4919590;28;118028;-61
2022/03/25 04:06:53;;;;;;;;;;;;;;;13.06;42.58;101876.84;4919222;28;122709;-61
2022/03/25 04:09:19;;;;;;;;;;;;;;;13.03;42.60;101873.56;4919456;28;104386;-66
2022/03/25 04:11:45;;;;;;;;;;;;;;;13.02;42.86;101884.66;4918755;28;99367;-64
2022/03/25 04:14:11;;;;;;;;;;;;;;;13.00;42.66;101881.34;4916737;28;127250;-65
2022/03/25 04:16:37;;;;;;;;;;;;;;;12.97;42.49;101882.69;4918600;28;123934;-67
2022/03/25 04:19:03;;;;;;;;;;;;;;;12.96;42.76;101885.63;4919263;28;98937;-65
2022/03/25 04:21:29;;;;;;;;;;;;;;;12.93;42.53;101878.84;4917918;28;127437;-64
2022/03/25 04:23:55;;;;;;;;;;;;;;;12.92;42.93;101882.59;4918324;28;98561;-61
2022/03/25 04:26:21;;;;;;;;;;;;;;;12.91;42.66;101890.97;4916663;28;121944;-61
2022/03/25 04:28:47;;;;;;;;;;;;;;;12.90;42.69;101895.56;4919162;28;98476;-61
2022/03/25 04:31:13;;;;;;;;;;;;;;;12.87;42.77;101890.66;4917516;28;128904;-61
2022/03/25 04:33:40;;;;;;;;;;;;;;;12.87;42.85;101900.66;4899851;28;127833;-64
2022/03/25 04:36:06;;;;;;;;;;;;;;;12.85;42.84;101898.22;4900895;28;98046;-65
2022/03/25 04:38:32;;;;;;;;;;;;;;;12.85;42.51;101897.38;4900771;28;98226;-64
2022/03/25 04:40:58;;;;;;;;;;;;;;;12.84;42.77;101909.28;4918238;28;128718;-64
2022/03/25 04:43:24;;;;;;;;;;;;;;;12.82;42.69;101896.00;4918976;28;98105;-65
2022/03/25 04:45:50;;;;;;;;;;;;;;;12.81;42.78;101907.06;4916465;28;121023;-61
2022/03/25 04:48:16;;;;;;;;;;;;;;;12.81;42.90;101901.63;4883409;28;126539;-61
2022/03/25 04:50:43;;;;;;;;;;;;;;;12.79;42.85;101907.31;4918439;28;128263;-64
2022/03/25 04:53:09;;;;;;;;;;;;;;;12.78;42.85;101905.69;4917928;28;98100;-66
2022/03/25 04:55:35;;;;;;;;;;;;;;;12.76;42.56;101911.31;4917670;28;121308;-66
2022/03/25 04:58:01;;;;;;;;;;;;;;;12.77;42.63;101909.44;4918161;28;128464;-61
2022/03/25 05:00:27;;;;;;;;;;;;;;;12.74;42.94;101913.47;4919413;28;98386;-64
2022/03/25 05:02:53;;;;;;;;;;;;;;;12.75;42.93;101917.00;4918323;28;111276;-61
2022/03/25 05:05:19;;;;;;;;;;;;;;;12.74;42.68;101918.06;4916556;28;123258;-65
2022/03/25 05:07:46;;;;;;;;;;;;;;;12.73;43.01;101917.25;4918717;28;99030;-61
2022/03/25 05:10:13;;;;;;;;;;;;;;;12.73;42.86;101922.66;4917884;28;109793;-61
2022/03/25 05:12:40;;;;;;;;;;;;;;;12.74;42.99;101923.47;4918298;28;98581;-61
2022/03/25 05:15:06;;;;;;;;;;;;;;;12.75;42.72;101934.03;4917933;28;107691;-64
2022/03/25 05:17:32;;;;;;;;;;;;;;;12.75;42.94;101934.03;4917686;28;106731;-60
2022/03/25 05:19:58;;;;;;;;;;;;;;;12.75;42.90;101931.34;4918275;28;98608;-61
2022/03/25 05:22:25;;;;;;;;;;;;;;;12.77;42.84;101933.78;4917146;28;128480;-65
2022/03/25 05:24:51;;;;;;;;;;;;;;;12.79;42.65;101926.25;4921516;28;98071;-61
2022/03/25 05:27:17;;;;;;;;;;;;;;;12.80;42.95;101937.88;4917503;28;129480;-65
2022/03/25 05:29:43;;;;;;;;;;;;;;;12.81;42.67;101934.97;4916796;28;127984;-61
2022/03/25 05:32:10;;;;;;;;;;;;;;;12.83;42.93;101932.00;4915531;28;127900;-61
2022/03/25 05:34:35;;;;;;;;;;;;;;;12.84;42.75;101936.31;4916594;28;98083;-61
2022/03/25 05:37:01;;;;;;;;;;;;;;;12.86;42.66;101945.84;4926449;28;128274;-61
2022/03/25 05:39:27;;;;;;;;;;;;;;;12.89;42.80;101945.38;4932745;28;125226;-61
2022/03/25 05:41:53;;;;;;;;;;;;;;;12.92;42.81;101950.25;4927611;28;129429;-66
2022/03/25 05:44:19;;;;;;;;;;;;;;;12.94;42.71;101950.84;4933607;28;122086;-61
2022/03/25 05:46:45;;;;;;;;;;;;;;;12.98;43.01;101951.19;4929319;28;127276;-61
2022/03/25 05:49:11;;;;;;;;;;;;;;;13.02;42.53;101961.25;4928332;28;100451;-61
2022/03/25 05:51:37;;;;;;;;;;;;;;;13.07;42.69;101959.69;4926325;28;126648;-61
2022/03/25 05:54:03;;;;;;;;;;;;;;;13.11;42.82;101956.22;4926396;28;98274;-65
2022/03/25 05:56:29;;;;;;;;;;;;;;;13.17;42.89;101960.66;4928117;28;127145;-61
2022/03/25 05:58:55;;;;;;;;;;;;;;;13.23;42.70;101959.69;4936957;28;126405;-65
2022/03/25 06:01:21;;;;;;;;;;;;;;;13.31;42.49;101955.72;4935946;28;98413;-65
2022/03/25 06:03:46;;;;;;;;;;;;;;;13.38;42.31;101959.09;4937472;28;120442;-65
2022/03/25 06:06:13;;;;;;;;;;;;;;;13.47;42.54;101963.00;4934461;28;128370;-66
2022/03/25 06:08:39;;;;;;;;;;;;;;;13.51;42.39;101961.41;4934994;28;98700;-66
2022/03/25 06:11:05;;;;;;;;;;;;;;;13.58;42.32;101963.97;4924714;28;128116;-65
2022/03/25 06:13:31;;;;;;;;;;;;;;;13.65;42.29;101961.06;4929589;28;98102;-65
2022/03/25 06:15:57;;;;;;;;;;;;;;;13.72;42.40;101967.94;4933004;28;98639;-61
2022/03/25 06:18:23;;;;;;;;;;;;;;;13.79;42.27;101962.31;4929409;28;129310;-65
2022/03/25 06:20:49;;;;;;;;;;;;;;;13.86;42.39;101967.56;4937955;28;127415;-61
2022/03/25 06:23:15;;;;;;;;;;;;;;;13.91;42.26;101960.31;4921359;28;121802;-62
2022/03/25 06:25:41;;;;;;;;;;;;;;;13.98;42.17;101958.19;4929163;28;127938;-65
2022/03/25 06:28:07;;;;;;;;;;;;;;;14.06;42.46;101964.25;4929853;28;128199;-65
2022/03/25 06:30:36;;;;;;;;;;;;;;;14.14;42.40;101955.66;4937264;28;127303;-62
2022/03/25 06:33:06;;;;;;;;;;;;;;;14.23;42.34;101962.28;4923591;28;98005;-65
2022/03/25 06:35:31;;;;;;;;;;;;;;;14.34;42.21;101964.00;4920686;28;98431;-62
2022/03/25 06:37:57;;;;;;;;;;;;;;;14.52;42.07;101960.16;4924456;28;128550;-61
2022/03/25 06:40:24;;;;;;;;;;;;;;;14.76;42.11;101957.09;4937726;28;98452;-61
2022/03/25 06:42:53;;;;;;;;;;;;;;;14.82;42.23;101956.88;4934681;28;98293;-61
2022/03/25 06:45:19;;;;;;;;;;;;;;;14.90;42.32;101958.28;4934837;28;98091;-62
2022/03/25 06:47:45;;;;;;;;;;;;;;;15.01;42.25;101961.88;4922402;28;128588;-61
2022/03/25 06:50:13;;;;;;;;;;;;;;;15.16;42.17;101962.78;4935565;28;99317;-62
2022/03/25 06:52:39;;;;;;;;;;;;;;;15.23;41.77;101962.56;4928450;28;98145;-67
2022/03/25 06:55:05;;;;;;;;;;;;;;;15.32;41.93;101965.63;4891852;28;111120;-62
2022/03/25 06:57:32;;;;;;;;;;;;;;;15.46;42.04;101958.63;4923408;28;124820;-67
2022/03/25 06:59:58;;;;;;;;;;;;;;;15.54;41.86;101963.56;4917049;28;124170;-61
2022/03/25 07:02:24;;;;;;;;;;;;;;;15.58;41.76;101970.09;4936010;28;118663;-61
2022/03/25 07:04:50;;;;;;;;;;;;;;;15.64;42.13;101960.06;4917746;28;122793;-61
2022/03/25 07:07:21;;;;;;;;;;;;;;;15.70;42.06;101968.00;4933939;28;99242;-62
2022/03/25 07:09:47;;;;;;;;;;;;;;;15.77;42.16;101972.41;4925346;28;98345;-65
2022/03/25 07:12:15;;;;;;;;;;;;;;;15.85;42.20;101974.59;4931981;28;115141;-65
2022/03/25 07:14:41;;;;;;;;;;;;;;;15.92;42.37;101975.19;4935383;28;98538;-64
2022/03/25 07:17:07;;;;;;;;;;;;;;;16.01;42.14;101984.44;4933190;28;126772;-65
2022/03/25 07:19:33;;;;;;;;;;;;;;;16.12;42.21;101982.59;4928869;28;98021;-66
2022/03/25 07:21:58;;;;;;;;;;;;;;;16.20;42.15;101980.16;4937754;28;97839;-61
2022/03/25 07:24:24;;;;;;;;;;;;;;;16.30;42.06;101978.53;4927884;28;127907;-62
2022/03/25 07:26:51;;;;;;;;;;;;;;;16.42;42.38;101973.66;4933447;28;126620;-66
2022/03/25 07:29:17;;;;;;;;;;;;;;;16.53;42.15;101982.66;4930144;28;98394;-67
2022/03/25 07:31:43;;;;;;;;;;;;;;;16.64;42.14;101985.09;4900411;28;100502;-61
2022/03/25 07:34:09;;;;;;;;;;;;;;;16.80;42.35;101985.16;4910071;28;111599;-62
2022/03/25 07:36:35;;;;;;;;;;;;;;;16.99;42.28;101990.88;4915399;28;116368;-67
2022/03/25 07:39:02;;;;;;;;;;;;;;;17.17;41.95;101985.66;4917555;28;98395;-66
2022/03/25 07:41:29;;;;;;;;;;;;;;;17.40;41.79;101994.31;4915201;28;108681;-61
2022/03/25 07:43:55;;;;;;;;;;;;;;;17.63;41.76;102001.06;4917056;28;99036;-61
2022/03/25 07:46:21;;;;;;;;;;;;;;;17.88;41.51;101995.56;4915255;28;125298;-65
2022/03/25 07:48:47;;;;;;;;;;;;;;;18.18;41.42;101995.69;4917296;28;97864;-61
2022/03/25 07:51:13;;;;;;;;;;;;;;;18.50;41.10;102000.66;4909025;28;122426;-61
2022/03/25 07:53:38;;;;;;;;;;;;;;;18.85;40.84;101992.22;4908983;28;125849;-65
2022/03/25 07:56:05;;;;;;;;;;;;;;;19.26;40.68;101997.31;4898961;28;108546;-61
2022/03/25 07:58:32;;;;;;;;;;;;;;;19.73;40.35;102001.22;4917292;28;98216;-65
2022/03/25 08:00:58;;;;;;;;;;;;;;;20.24;39.64;102002.44;4917093;28;97757;-65
2022/03/25 08:03:24;;;;;;;;;;;;;;;20.75;39.42;102010.75;4915818;28;127499;-61
2022/03/25 08:05:51;;;;;;;;;;;;;;;21.27;39.14;102006.00;4916314;28;99035;-66
2022/03/25 08:08:19;;;;;;;;;;;;;;;21.87;38.63;102015.28;4916632;28;98083;-61
2022/03/25 08:10:46;;;;;;;;;;;;;;;22.51;38.23;102008.63;4917806;28;98085;-62
2022/03/25 08:13:12;;;;;;;;;;;;;;;23.18;37.71;102018.81;4916772;28;98511;-61
2022/03/25 08:15:38;;;;;;;;;;;;;;;23.80;37.47;102020.72;4915113;28;126604;-62
2022/03/25 08:18:10;;;;;;;;;;;;;;;24.44;36.88;102028.44;4916045;28;98489;-66
2022/03/25 08:20:39;;;;;;;;;;;;;;;25.12;36.67;102026.78;4916818;28;98107;-61
2022/03/25 08:23:06;;;;;;;;;;;;;;;25.79;36.31;102033.50;4916833;28;98324;-65
2022/03/25 08:28:17;;;;;;;;;;;;;;;26.96;35.78;102033.59;4913035;28;98310;-62
2022/03/25 08:30:43;;;;;;;;;;;;;;;27.40;35.61;102034.72;4925771;28;97907;-61
2022/03/25 08:33:09;;;;;;;;;;;;;;;27.73;35.41;102024.69;4927866;28;98646;-66
2022/03/25 08:35:36;;;;;;;;;;;;;;;28.03;35.24;102028.03;4931380;28;128726;-61
2022/03/25 08:38:02;;;;;;;;;;;;;;;28.28;35.21;102032.34;4928723;28;97813;-62
2022/03/25 08:40:29;;;;;;;;;;;;;;;28.51;35.49;102035.44;4934443;28;113705;-66
2022/03/25 08:42:55;;;;;;;;;;;;;;;28.74;35.51;102032.91;4930829;28;98894;-62
2022/03/25 08:45:21;;;;;;;;;;;;;;;28.98;35.28;102033.97;4934327;28;122111;-65
2022/03/25 08:47:48;;;;;;;;;;;;;;;29.24;35.25;102039.81;4932459;28;123899;-65
2022/03/25 08:50:14;;;;;;;;;;;;;;;29.54;35.57;102033.81;4917171;28;98424;-62
2022/03/25 08:52:40;;;;;;;;;;;;;;;29.86;35.41;102029.03;4927621;28;98497;-62
2022/03/25 08:55:08;;;;;;;;;;;;;;;30.20;34.82;102029.41;4928230;28;110414;-66
2022/03/25 08:57:34;;;;;;;;;;;;;;;30.53;35.11;102032.50;4909216;28;100526;-66
2022/03/25 09:00:00;;;;;;;;;;;;;;;30.89;34.75;102024.88;4930895;28;98077;-62
2022/03/25 09:02:26;;;;;;;;;;;;;;;31.25;34.77;102025.50;4927508;28;128266;-62
2022/03/25 09:04:52;;;;;;;;;;;;;;;31.61;34.39;102028.91;4935506;28;98246;-62
2022/03/25 09:07:18;;;;;;;;;;;;;;;31.99;34.50;102023.13;4931344;28;127709;-66
2022/03/25 09:09:43;;;;;;;;;;;;;;;32.38;34.23;102024.78;4935263;28;122895;-66
2022/03/25 09:12:10;;;;;;;;;;;;;;;32.73;33.82;102022.44;4917903;28;98273;-62
2022/03/25 09:14:36;;;;;;;;;;;;;;;33.10;33.82;102023.63;4933253;28;125512;-63
2022/03/25 09:17:01;;;;;;;;;;;;;;;33.45;33.27;102023.97;4933532;28;126922;-62
2022/03/25 09:19:27;;;;;;;;;;;;;;;33.79;33.14;102023.78;4935700;28;98021;-62
2022/03/25 09:21:53;;;;;;;;;;;;;;;34.12;33.26;102022.81;4921905;28;127127;-66
2022/03/25 09:24:19;;;;;;;;;;;;;;;34.45;33.11;102015.31;4923902;28;127903;-62
2022/03/25 09:26:45;;;;;;;;;;;;;;;34.77;32.50;102012.63;4914417;28;128118;-66
2022/03/25 09:29:11;;;;;;;;;;;;;;;35.09;32.66;102020.28;4910089;28;122291;-63
2022/03/25 09:31:38;;;;;;;;;;;;;;;35.42;32.08;102011.47;4934464;28;128423;-63
2022/03/25 09:36:49;;;;;;;;;;;;;;;36.14;31.96;102005.72;4920531;28;98578;-64
2022/03/25 09:39:15;;;;;;;;;;;;;;;36.48;31.41;102014.41;4933832;28;122500;-61
2022/03/25 09:41:41;;;;;;;;;;;;;;;36.85;31.21;102008.16;4928909;28;129272;-61
2022/03/25 09:44:07;;;;;;;;;;;;;;;37.25;30.74;102013.47;4938883;28;127297;-65
2022/03/25 09:46:33;;;;;;;;;;;;;;;37.57;30.43;101999.97;4929282;28;126613;-64
2022/03/25 09:48:59;;;;;;;;;;;;;;;37.91;30.13;102010.44;4937508;28;119720;-65
2022/03/25 09:51:25;;;;;;;;;;;;;;;38.23;29.74;102006.41;4922142;28;97983;-66
2022/03/25 09:53:51;;;;;;;;;;;;;;;38.59;29.55;102009.56;4935289;28;128142;-63
2022/03/25 09:56:16;;;;;;;;;;;;;;;38.90;29.56;102009.53;4915144;28;98463;-63
2022/03/25 09:58:42;;;;;;;;;;;;;;;39.29;29.18;102003.25;4914472;28;123359;-67
2022/03/25 10:01:09;;;;;;;;;;;;;;;39.71;28.83;101998.84;4936337;28;127980;-63
2022/03/25 10:03:36;;;;;;;;;;;;;;;40.13;28.62;101995.63;4920349;28;99089;-66
2022/03/25 10:06:02;;;;;;;;;;;;;;;40.51;28.48;101989.50;4938850;28;98309;-63
2022/03/25 10:08:30;;;;;;;;;;;;;;;40.91;27.99;101988.16;4933528;28;97957;-66
2022/03/25 10:10:56;;;;;;;;;;;;;;;41.29;27.72;101987.59;4937166;28;98124;-63
2022/03/25 10:13:22;;;;;;;;;;;;;;;41.69;27.45;101985.28;4920388;28;97872;-67
2022/03/25 10:15:48;;;;;;;;;;;;;;;42.05;27.11;101983.44;4937910;28;127664;-66
2022/03/25 10:18:14;;;;;;;;;;;;;;;42.29;26.81;101978.28;4917905;28;120227;-66
2022/03/25 10:20:41;;;;;;;;;;;;;;;42.52;26.48;101985.66;4918607;28;98591;-63
2022/03/25 10:23:12;;;;;;;;;;;;;;;42.80;26.22;101983.94;4903505;28;97963;-66
2022/03/25 10:25:44;;;;;;;;;;;;;;;43.04;26.52;101990.81;4928825;28;98108;-64
2022/03/25 10:28:34;;;;;;;;;;;;;;;43.58;25.53;101989.75;4933044;28;97835;-63
2022/03/25 10:31:02;;;;;;;;;;;;;;;44.21;24.95;101984.13;4932559;28;98275;-66
2022/03/25 10:33:32;;;;;;;;;;;;;;;44.54;25.03;101976.72;4938782;28;99000;-66
2022/03/25 10:36:09;;;;;;;;;;;;;;;44.78;24.78;101976.97;4931577;28;98145;-62
2022/03/25 10:39:00;;;;;;;;;;;;;;;44.98;24.47;101978.56;4932183;28;97924;-62
2022/03/25 10:41:36;;;;;;;;;;;;;;;45.29;24.33;101970.72;4934922;28;98099;-66
2022/03/25 10:44:05;;;;;;;;;;;;;;;45.84;23.76;101967.03;4918565;28;98395;-62
2022/03/25 10:46:41;;;;;;;;;;;;;;;46.13;23.37;101965.66;4934127;28;98159;-63
2022/03/25 10:49:19;;;;;;;;;;;;;;;46.01;22.33;101959.69;4917529;28;98095;-63
2022/03/25 10:51:55;;;;;;;;;;;;;;;45.69;21.77;101954.72;4928331;28;99140;-69
2022/03/25 10:54:25;;;;;;;;;;;;;;;44.92;21.06;101949.97;4932841;28;98500;-68
2022/03/25 10:56:52;;;;;;;;;;;;;;;44.18;20.96;101951.81;4933465;28;97968;-67
2022/03/25 10:59:31;;;;;;;;;;;;;;;43.49;20.96;101952.81;4920115;28;98045;-68
2022/03/25 11:02:07;;;;;;;;;;;;;;;42.81;20.26;101943.03;4937034;28;104433;-63
2022/03/25 11:04:34;;;;;;;;;;;;;;;42.13;20.71;101943.16;4931211;28;99162;-63
2022/03/25 11:07:01;;;;;;;;;;;;;;;41.59;20.60;101946.00;4913972;28;105489;-63
2022/03/25 11:09:27;;;;;;;;;;;;;;;41.49;20.19;101947.88;4935624;28;98283;-67
2022/03/25 11:11:53;;;;;;;;;;;;;;;41.49;20.11;101941.44;4935215;28;98568;-63
2022/03/25 11:14:22;;;;;;;;;;;;;;;41.57;19.62;101946.44;4937189;28;98704;-67
2022/03/25 11:16:55;;;;;;;;;;;;;;;41.39;19.52;101940.47;4924118;28;97878;-63
2022/03/25 11:19:21;;;;;;;;;;;;;;;41.21;19.56;101936.09;4919728;28;98075;-63
2022/03/25 11:21:48;;;;;;;;;;;;;;;40.88;19.58;101937.38;4928940;28;98533;-66
2022/03/25 11:24:30;;;;;;;;;;;;;;;40.38;19.33;101925.25;4916658;28;98051;-63
2022/03/25 11:26:56;;;;;;;;;;;;;;;39.85;20.07;101932.88;4896937;28;100491;-63
2022/03/25 11:29:26;;;;;;;;;;;;;;;39.43;20.28;101923.25;4918970;28;116593;-67
2022/03/25 11:32:10;;;;;;;;;;;;;;;39.07;20.48;101931.53;4905862;28;99354;-68
2022/03/25 11:34:54;;;;;;;;;;;;;;;38.71;20.02;101924.50;4913149;28;100671;-67
2022/03/25 11:37:24;;;;;;;;;;;;;;;38.30;20.44;101922.69;4918837;28;98491;-67
2022/03/25 11:40:16;;;;;;;;;;;;;;;38.04;20.34;101921.47;4936835;28;97859;-67
2022/03/25 11:42:46;;;;;;;;;;;;;;;37.70;20.29;101913.03;4932279;28;98171;-62
2022/03/25 11:45:21;;;;;;;;;;;;;;;37.06;20.71;101913.69;4936703;28;116519;-66
2022/03/25 11:48:02;;;;;;;;;;;;;;;37.01;20.64;101912.16;4928527;28;99292;-66
2022/03/25 11:50:41;;;;;;;;;;;;;;;36.82;20.72;101913.47;4933733;28;97915;-62
2022/03/25 11:53:13;;;;;;;;;;;;;;;36.68;20.83;101907.22;4937721;28;98436;-62
2022/03/25 11:56:01;;;;;;;;;;;;;;;36.56;20.67;101903.69;4922331;28;100059;-62
2022/03/25 11:59:08;;;;;;;;;;;;;;;36.39;20.74;101901.75;4936335;28;98558;-62
2022/03/25 12:01:34;;;;;;;;;;;;;;;36.24;20.84;101887.06;4832671;28;98192;-66
2022/03/25 12:04:00;;;;;;;;;;;;;;;36.10;21.03;101899.16;4914335;28;97866;-63
2022/03/25 12:06:26;;;;;;;;;;;;;;;35.95;21.03;101889.19;4914335;28;128025;-66
2022/03/25 12:09:00;;;;;;;;;;;;;;;35.73;20.84;101890.50;4936476;28;97938;-62
2022/03/25 12:11:49;;;;;;;;;;;;;;;35.53;21.21;101892.97;4928365;28;98277;-62
2022/03/25 12:14:15;;;;;;;;;;;;;;;35.34;21.52;101883.81;4934955;28;98575;-66
2022/03/25 12:16:47;;;;;;;;;;;;;;;35.24;21.23;101889.44;4930814;28;104942;-66
2022/03/25 12:19:28;;;;;;;;;;;;;;;35.01;21.65;101879.47;4936367;28;98186;-62
2022/03/25 12:21:58;;;;;;;;;;;;;;;34.83;21.15;101887.06;4930980;28;98058;-66
2022/03/25 12:24:24;;;;;;;;;;;;;;;34.60;21.73;101884.66;4932749;28;98470;-66
2022/03/25 12:26:58;;;;;;;;;;;;;;;34.48;21.75;101890.63;4932608;28;120824;-65
2022/03/25 12:29:40;;;;;;;;;;;;;;;34.31;21.74;101892.16;4929816;28;98135;-62
2022/03/25 12:32:08;;;;;;;;;;;;;;;34.10;21.46;101895.72;4916327;28;98183;-65
2022/03/25 12:35:05;;;;;;;;;;;;;;;33.87;21.59;101891.22;4916374;28;98645;-65
2022/03/25 12:37:47;;;;;;;;;;;;;;;33.58;21.90;101876.34;4917354;28;98963;-62
2022/03/25 12:40:23;;;;;;;;;;;;;;;33.31;22.02;101877.75;4917427;28;98094;-65